createdAt,value
2022-08-18T00:01:19.548Z,19.40
2022-08-18T00:03:56.401Z,19.50
2022-08-18T00:06:29.318Z,19.50
2022-08-18T00:09:01.294Z,19.50
2022-08-18T00:11:41.082Z,19.50
2022-08-18T00:14:21.390Z,19.50
2022-08-18T00:16:52.581Z,19.50
2022-08-18T00:19:21.843Z,19.50
2022-08-18T00:22:08.762Z,19.60
2022-08-18T00:24:47.736Z,19.60
2022-08-18T00:27:23.216Z,19.60
2022-08-18T00:29:52.800Z,19.70
2022-08-18T00:32:26.185Z,19.70
2022-08-18T00:34:53.938Z,19.70
2022-08-18T00:37:23.241Z,19.60
2022-08-18T00:39:54.372Z,19.60
2022-08-18T00:42:29.122Z,19.60
2022-08-18T00:45:01.367Z,19.50
2022-08-18T00:47:36.362Z,19.50
2022-08-18T00:50:17.069Z,19.50
2022-08-18T00:52:50.170Z,19.60
2022-08-18T00:55:18.438Z,19.60
2022-08-18T00:57:51.354Z,19.60
2022-08-18T01:00:19.437Z,19.70
2022-08-18T01:02:52.434Z,19.60
2022-08-18T01:05:30.736Z,19.60
2022-08-18T01:07:58.697Z,19.60
2022-08-18T01:10:26.431Z,19.60
2022-08-18T01:12:56.356Z,19.60
2022-08-18T01:15:28.777Z,19.50
2022-08-18T01:18:22.446Z,19.50
2022-08-18T01:21:27.838Z,19.60
2022-08-18T01:23:56.000Z,19.50
2022-08-18T01:26:26.325Z,19.40
2022-08-18T01:28:54.107Z,19.40
2022-08-18T01:31:53.297Z,19.40
2022-08-18T01:34:24.686Z,19.40
2022-08-18T01:36:54.990Z,19.40
2022-08-18T01:41:11.177Z,19.40
2022-08-18T01:42:15.017Z,19.30
2022-08-18T01:44:42.072Z,19.30
2022-08-18T01:47:11.857Z,19.20
2022-08-18T01:49:44.565Z,19.20
2022-08-18T01:52:18.099Z,19.20
2022-08-18T01:54:45.383Z,19.10
2022-08-18T01:57:13.606Z,19.10
2022-08-18T01:59:42.062Z,19.10
2022-08-18T02:02:12.355Z,19.10
2022-08-18T02:04:45.929Z,19.00
2022-08-18T02:07:14.957Z,19.00
2022-08-18T02:09:52.461Z,18.90
2022-08-18T02:12:20.795Z,18.90
2022-08-18T02:14:50.228Z,18.90
2022-08-18T02:17:18.680Z,18.90
2022-08-18T02:19:49.190Z,18.80
2022-08-18T02:22:19.291Z,18.80
2022-08-18T02:24:53.296Z,18.70
2022-08-18T02:27:20.394Z,18.70
2022-08-18T02:29:50.784Z,18.70
2022-08-18T02:35:11.739Z,18.70
2022-08-18T02:37:44.529Z,18.70
2022-08-18T02:40:14.731Z,18.70
2022-08-18T02:42:47.088Z,18.70
2022-08-18T02:45:18.528Z,18.70
2022-08-18T02:47:45.842Z,18.60
2022-08-18T02:50:14.151Z,18.60
2022-08-18T02:52:41.360Z,18.60
2022-08-18T02:55:09.173Z,18.60
2022-08-18T02:57:36.609Z,18.50
2022-08-18T03:00:05.108Z,18.50
2022-08-18T03:02:39.569Z,18.50
2022-08-18T03:05:07.476Z,18.50
2022-08-18T03:07:41.398Z,18.40
2022-08-18T03:10:31.925Z,18.40
2022-08-18T03:12:59.289Z,18.40
2022-08-18T03:15:29.428Z,18.40
2022-08-18T03:17:56.329Z,18.20
2022-08-18T03:20:31.100Z,18.40
2022-08-18T03:22:58.727Z,18.30
2022-08-18T03:25:25.479Z,18.30
2022-08-18T03:27:52.391Z,18.30
2022-08-18T03:30:19.552Z,18.30
2022-08-18T03:32:47.343Z,18.30
2022-08-18T03:35:14.668Z,18.20
2022-08-18T03:37:41.526Z,18.20
2022-08-18T03:40:09.712Z,18.20
2022-08-18T03:42:41.557Z,18.20
2022-08-18T03:45:17.275Z,18.20
2022-08-18T03:47:45.993Z,18.10
2022-08-18T03:50:14.041Z,18.10
2022-08-18T03:52:43.025Z,18.10
2022-08-18T03:55:10.449Z,18.10
2022-08-18T03:57:39.073Z,18.10
2022-08-18T04:00:10.353Z,18.10
2022-08-18T04:02:38.323Z,18.10
2022-08-18T04:05:06.604Z,18.10
2022-08-18T04:07:36.723Z,18.00
2022-08-18T04:10:04.995Z,18.00
2022-08-18T04:12:33.000Z,17.90
2022-08-18T04:14:59.868Z,17.90
2022-08-18T04:17:26.697Z,17.80
2022-08-18T04:19:55.639Z,17.80
2022-08-18T04:22:25.228Z,17.80
2022-08-18T04:24:55.958Z,18.00
2022-08-18T04:27:25.234Z,18.00
2022-08-18T04:29:52.145Z,18.00
2022-08-18T04:32:19.534Z,18.10
2022-08-18T04:34:47.499Z,18.10
2022-08-18T04:37:18.290Z,18.10
2022-08-18T04:39:46.719Z,18.20
2022-08-18T04:42:14.302Z,18.20
2022-08-18T04:44:43.280Z,18.20
2022-08-18T04:47:10.123Z,18.20
2022-08-18T04:49:37.542Z,18.20
2022-08-18T04:52:40.724Z,18.20
2022-08-18T04:55:10.340Z,18.30
2022-08-18T04:57:37.540Z,18.30
2022-08-18T05:00:06.870Z,18.40
2022-08-18T05:02:33.802Z,18.40
2022-08-18T05:05:03.407Z,18.50
2022-08-18T05:07:31.244Z,18.60
2022-08-18T05:09:58.079Z,18.60
2022-08-18T05:12:26.119Z,18.70
2022-08-18T05:14:53.979Z,18.80
2022-08-18T05:17:20.705Z,18.80
2022-08-18T05:19:47.641Z,18.90
2022-08-18T05:22:19.630Z,19.00
2022-08-18T05:24:54.697Z,19.20
2022-08-18T05:27:21.779Z,19.20
2022-08-18T05:29:51.607Z,19.30
2022-08-18T05:32:46.382Z,19.30
2022-08-18T05:35:15.171Z,19.50
2022-08-18T05:37:48.178Z,19.60
2022-08-18T05:40:19.119Z,19.80
2022-08-18T05:42:46.853Z,19.90
2022-08-18T05:45:17.573Z,20.10
2022-08-18T05:47:44.833Z,20.10
2022-08-18T05:50:17.311Z,20.20
2022-08-18T05:52:50.624Z,20.30
2022-08-18T05:55:52.164Z,20.50
2022-08-18T05:58:42.092Z,20.40
2022-08-18T06:01:38.557Z,20.60
2022-08-18T06:04:22.078Z,20.60
2022-08-18T06:06:51.299Z,20.70
2022-08-18T06:09:25.684Z,20.70
2022-08-18T06:11:56.700Z,20.80
2022-08-18T06:14:24.490Z,20.80
2022-08-18T06:17:09.185Z,20.80
2022-08-18T06:20:18.086Z,20.80
2022-08-18T06:22:55.236Z,20.70
2022-08-18T06:25:57.764Z,20.70
2022-08-18T06:28:29.456Z,20.80
2022-08-18T06:31:13.790Z,20.80
2022-08-18T06:34:14.207Z,20.80
2022-08-18T06:36:59.211Z,20.70
2022-08-18T06:39:39.606Z,20.70
2022-08-18T06:42:06.408Z,20.60
2022-08-18T06:44:39.069Z,20.70
2022-08-18T06:47:43.099Z,20.70
2022-08-18T06:50:46.262Z,20.90
2022-08-18T06:53:26.910Z,21.00
2022-08-18T06:55:56.174Z,21.00
2022-08-18T06:58:32.698Z,21.10
2022-08-18T07:01:00.984Z,21.20
2022-08-18T07:03:36.939Z,21.20
2022-08-18T07:06:09.321Z,21.20
2022-08-18T07:08:41.550Z,21.20
2022-08-18T07:11:17.370Z,21.30
2022-08-18T07:13:54.930Z,21.40
2022-08-18T07:16:57.865Z,21.60
2022-08-18T07:19:29.539Z,21.70
2022-08-18T07:22:06.492Z,21.80
2022-08-18T07:24:42.267Z,21.90
2022-08-18T07:27:11.343Z,21.90
2022-08-18T07:30:04.017Z,21.80
2022-08-18T07:32:40.526Z,21.90
2022-08-18T07:35:09.394Z,22.00
2022-08-18T07:38:13.955Z,22.10
2022-08-18T07:41:14.163Z,22.20
2022-08-18T07:43:52.904Z,22.40
2022-08-18T07:46:28.665Z,22.40
2022-08-18T07:48:59.578Z,22.40
2022-08-18T07:51:46.082Z,22.50
2022-08-18T07:54:49.055Z,22.50
2022-08-18T07:57:44.425Z,22.70
2022-08-18T08:00:35.201Z,22.70
2022-08-18T08:03:28.222Z,22.90
2022-08-18T08:06:31.457Z,23.00
2022-08-18T08:09:04.244Z,23.20
2022-08-18T08:11:35.555Z,23.20
2022-08-18T08:14:26.523Z,23.10
2022-08-18T08:17:05.978Z,23.20
2022-08-18T08:20:00.177Z,23.40
2022-08-18T08:22:33.161Z,23.60
2022-08-18T08:25:45.037Z,23.60
2022-08-18T08:28:29.551Z,23.60
2022-08-18T08:34:20.368Z,23.80
2022-08-18T08:36:50.341Z,24.00
2022-08-18T08:39:20.785Z,23.80
2022-08-18T08:42:00.377Z,23.70
2022-08-18T08:44:59.817Z,23.60
2022-08-18T08:47:36.810Z,23.70
2022-08-18T08:50:18.427Z,23.70
2022-08-18T08:52:58.276Z,23.80
2022-08-18T08:55:36.267Z,23.70
2022-08-18T08:58:17.898Z,23.70
2022-08-18T09:00:46.322Z,23.90
2022-08-18T09:03:43.170Z,24.20
2022-08-18T09:06:33.946Z,24.20
2022-08-18T09:09:21.660Z,24.30
2022-08-18T09:12:11.929Z,24.40
2022-08-18T09:14:52.755Z,24.40
2022-08-18T09:17:44.801Z,24.40
2022-08-18T09:20:53.147Z,24.30
2022-08-18T09:23:28.168Z,24.30
2022-08-18T09:26:00.298Z,24.40
2022-08-18T09:28:30.145Z,24.40
2022-08-18T09:31:08.632Z,24.50
2022-08-18T09:33:45.455Z,24.50
2022-08-18T09:36:27.572Z,24.50
2022-08-18T09:39:41.931Z,24.50
2022-08-18T09:42:30.121Z,24.40
2022-08-18T09:45:02.283Z,24.50
2022-08-18T09:47:30.851Z,24.40
2022-08-18T09:50:26.538Z,24.50
2022-08-18T09:53:14.668Z,24.70
2022-08-18T09:55:56.626Z,24.80
2022-08-18T09:58:26.241Z,24.80
2022-08-18T10:01:19.539Z,25.00
2022-08-18T10:04:29.394Z,25.10
2022-08-18T10:07:31.970Z,25.10
2022-08-18T10:11:00.922Z,25.10
2022-08-18T10:13:24.848Z,25.20
2022-08-18T10:16:16.427Z,25.30
2022-08-18T10:19:06.757Z,25.40
2022-08-18T10:21:58.445Z,25.30
2022-08-18T10:24:38.178Z,25.30
2022-08-18T10:27:13.745Z,25.40
2022-08-18T10:29:47.866Z,25.70
2022-08-18T10:32:14.582Z,25.80
2022-08-18T10:34:51.616Z,25.90
2022-08-18T10:37:21.653Z,25.90
2022-08-18T10:40:04.778Z,26.10
2022-08-18T10:42:44.614Z,26.20
2022-08-18T10:45:59.462Z,26.20
2022-08-18T10:48:34.823Z,26.20
2022-08-18T10:52:01.508Z,25.80
2022-08-18T10:54:54.227Z,25.70
2022-08-18T10:57:43.282Z,25.80
2022-08-18T11:00:21.785Z,26.00
2022-08-18T11:03:30.153Z,26.10
2022-08-18T11:06:14.474Z,26.20
2022-08-18T11:08:55.240Z,26.10
2022-08-18T11:11:38.026Z,26.10
2022-08-18T11:14:11.486Z,26.10
2022-08-18T11:16:59.439Z,26.10
2022-08-18T11:19:27.115Z,26.10
2022-08-18T11:21:53.978Z,26.10
2022-08-18T11:24:27.682Z,26.20
2022-08-18T11:27:00.154Z,26.30
2022-08-18T11:29:36.116Z,26.40
2022-08-18T11:32:09.127Z,26.60
2022-08-18T11:34:45.522Z,26.80
2022-08-18T11:37:49.638Z,26.90
2022-08-18T11:41:09.163Z,27.10
2022-08-18T11:43:41.168Z,27.30
2022-08-18T11:46:27.750Z,27.30
2022-08-18T11:48:57.502Z,27.30
2022-08-18T11:51:31.357Z,27.30
2022-08-18T11:54:13.767Z,27.20
2022-08-18T11:56:40.517Z,27.30
2022-08-18T11:59:52.794Z,27.10
2022-08-18T12:02:20.581Z,26.70
2022-08-18T12:05:02.902Z,26.80
2022-08-18T12:10:30.023Z,26.60
2022-08-18T12:13:00.884Z,26.70
2022-08-18T12:15:36.610Z,26.70
2022-08-18T12:18:26.276Z,26.80
2022-08-18T12:20:58.719Z,26.90
2022-08-18T12:23:26.008Z,26.80
2022-08-18T12:25:52.816Z,26.80
2022-08-18T12:28:22.840Z,26.80
2022-08-18T12:30:56.842Z,26.80
2022-08-18T12:33:25.177Z,26.80
2022-08-18T12:35:52.693Z,26.80
2022-08-18T12:38:19.493Z,26.90
2022-08-18T12:40:46.376Z,27.10
2022-08-18T12:43:13.262Z,27.10
2022-08-18T12:45:41.467Z,27.10
2022-08-18T12:48:08.829Z,27.20
2022-08-18T12:50:49.684Z,27.30
2022-08-18T12:53:30.102Z,27.40
2022-08-18T12:56:30.319Z,27.50
2022-08-18T12:59:00.456Z,27.60
2022-08-18T13:01:32.478Z,27.70
2022-08-18T13:04:11.371Z,27.80
2022-08-18T13:06:50.339Z,27.90
2022-08-18T13:09:35.324Z,27.80
2022-08-18T13:12:17.202Z,27.80
2022-08-18T13:14:44.946Z,27.80
2022-08-18T13:17:29.772Z,27.80
2022-08-18T13:20:06.559Z,27.80
2022-08-18T13:22:35.521Z,27.80
2022-08-18T13:25:05.566Z,27.80
2022-08-18T13:27:35.554Z,27.70
2022-08-18T13:30:29.608Z,27.70
2022-08-18T13:32:58.842Z,27.60
2022-08-18T13:35:30.181Z,27.50
2022-08-18T13:38:06.709Z,27.40
2022-08-18T13:40:47.523Z,27.30
2022-08-18T13:43:17.494Z,27.30
2022-08-18T13:45:48.018Z,27.20
2022-08-18T13:48:20.212Z,27.10
2022-08-18T13:50:47.724Z,26.90
2022-08-18T13:53:21.865Z,26.90
2022-08-18T13:55:49.415Z,26.90
2022-08-18T13:58:21.134Z,26.80
2022-08-18T14:00:54.556Z,26.90
2022-08-18T14:03:42.830Z,26.90
2022-08-18T14:06:12.978Z,27.00
2022-08-18T14:08:40.491Z,27.10
2022-08-18T14:11:07.872Z,27.20
2022-08-18T14:13:38.082Z,27.30
2022-08-18T14:16:16.251Z,27.40
2022-08-18T14:19:10.004Z,27.40
2022-08-18T14:22:04.046Z,27.40
2022-08-18T14:24:50.529Z,27.30
2022-08-18T14:27:24.136Z,27.20
2022-08-18T14:29:55.149Z,27.20
2022-08-18T14:32:29.315Z,27.10
2022-08-18T14:36:04.431Z,27.00
2022-08-18T14:37:49.495Z,26.90
2022-08-18T14:40:21.432Z,26.90
2022-08-18T14:42:54.307Z,26.80
2022-08-18T14:45:31.698Z,26.80
2022-08-18T14:48:07.341Z,26.80
2022-08-18T14:50:38.776Z,26.80
2022-08-18T14:53:06.430Z,26.90
2022-08-18T14:55:34.499Z,26.90
2022-08-18T14:58:03.337Z,27.00
2022-08-18T15:00:30.322Z,26.90
2022-08-18T15:02:59.490Z,26.90
2022-08-18T15:05:32.223Z,26.80
2022-08-18T15:08:05.557Z,26.90
2022-08-18T15:10:32.891Z,26.80
2022-08-18T15:13:00.468Z,26.80
2022-08-18T15:15:28.618Z,26.70
2022-08-18T15:18:15.592Z,26.50
2022-08-18T15:21:10.419Z,26.40
2022-08-18T15:24:14.969Z,26.40
2022-08-18T15:26:51.525Z,26.30
2022-08-18T15:29:18.946Z,26.20
2022-08-18T15:31:50.763Z,26.10
2022-08-18T15:34:20.631Z,26.10
2022-08-18T15:36:48.091Z,26.10
2022-08-18T15:39:15.309Z,26.00
2022-08-18T15:41:48.588Z,25.90
2022-08-18T15:44:20.584Z,25.90
2022-08-18T15:46:53.442Z,25.80
2022-08-18T15:49:21.739Z,25.70
2022-08-18T15:51:50.045Z,25.70
2022-08-18T15:54:19.549Z,25.70
2022-08-18T15:56:58.194Z,25.70
2022-08-18T15:59:34.107Z,25.70
2022-08-18T16:02:11.727Z,25.70
2022-08-18T16:04:41.289Z,25.70
2022-08-18T16:07:12.165Z,25.60
2022-08-18T16:09:38.916Z,25.50
2022-08-18T16:12:09.034Z,25.40
2022-08-18T16:14:40.390Z,25.30
2022-08-18T16:17:09.418Z,25.30
2022-08-18T16:19:45.145Z,25.20
2022-08-18T16:22:13.467Z,25.20
2022-08-18T16:24:40.608Z,25.20
2022-08-18T16:27:08.782Z,25.20
2022-08-18T16:29:36.514Z,25.20
2022-08-18T16:32:03.726Z,25.20
2022-08-18T16:34:32.163Z,25.20
2022-08-18T16:36:59.048Z,25.20
2022-08-18T16:39:25.799Z,25.20
2022-08-18T16:41:52.591Z,25.10
2022-08-18T16:44:19.565Z,25.00
2022-08-18T16:46:46.532Z,25.00
2022-08-18T16:49:13.414Z,25.00
2022-08-18T16:51:40.833Z,24.90
2022-08-18T16:54:07.632Z,25.00
2022-08-18T16:56:35.963Z,25.00
2022-08-18T16:59:22.491Z,25.00
2022-08-18T17:02:07.882Z,25.00
2022-08-18T17:04:34.831Z,24.90
2022-08-18T17:07:04.830Z,24.90
2022-08-18T17:09:33.062Z,24.90
2022-08-18T17:12:00.234Z,24.90
2022-08-18T17:14:30.052Z,24.90
2022-08-18T17:16:58.544Z,24.90
2022-08-18T17:19:29.801Z,24.90
2022-08-18T17:21:57.007Z,24.80
2022-08-18T17:24:31.440Z,24.70
2022-08-18T17:27:27.772Z,24.70
2022-08-18T17:30:23.521Z,24.60
2022-08-18T17:33:02.048Z,24.50
2022-08-18T17:35:35.244Z,24.20
2022-08-18T17:38:43.706Z,23.50
2022-08-18T17:41:12.576Z,22.80
2022-08-18T17:46:27.589Z,20.70
2022-08-18T17:49:04.021Z,19.50
2022-08-18T17:51:44.549Z,19.00
2022-08-18T17:54:38.392Z,18.80
2022-08-18T17:57:15.607Z,18.90
2022-08-18T17:59:58.955Z,18.90
2022-08-18T18:02:30.601Z,19.00
2022-08-18T18:05:06.083Z,19.00
2022-08-18T18:07:45.829Z,19.10
2022-08-18T18:10:29.239Z,19.10
2022-08-18T18:13:20.519Z,19.20
2022-08-18T18:16:19.671Z,19.30
2022-08-18T18:18:56.496Z,19.30
2022-08-18T18:21:53.556Z,19.20
2022-08-18T18:24:23.911Z,19.30
2022-08-18T18:26:52.874Z,19.30
2022-08-18T18:29:38.419Z,19.30
2022-08-18T18:32:10.761Z,19.30
2022-08-18T18:34:44.456Z,19.20
2022-08-18T18:37:27.220Z,19.20
2022-08-18T18:39:57.992Z,19.20
2022-08-18T18:42:30.803Z,19.20
2022-08-18T18:45:00.490Z,19.20
2022-08-18T18:47:47.513Z,19.20
2022-08-18T18:50:26.662Z,19.20
2022-08-18T18:53:12.204Z,19.20
2022-08-18T18:55:56.318Z,19.30
2022-08-18T18:58:36.680Z,19.30
2022-08-18T19:01:09.866Z,19.30
2022-08-18T19:03:48.468Z,19.20
2022-08-18T19:06:24.995Z,19.20
2022-08-18T19:09:17.971Z,19.20
2022-08-18T19:11:57.814Z,19.20
2022-08-18T19:14:39.391Z,19.20
2022-08-18T19:17:35.977Z,19.20
2022-08-18T19:20:16.752Z,19.20
2022-08-18T19:23:06.564Z,19.20
2022-08-18T19:25:44.313Z,19.20
2022-08-18T19:28:30.212Z,19.20
2022-08-18T19:31:03.638Z,19.10
2022-08-18T19:33:43.800Z,19.10
2022-08-18T19:36:40.056Z,19.10
2022-08-18T19:39:18.801Z,19.10
2022-08-18T19:41:59.409Z,19.10
2022-08-18T19:44:35.487Z,19.10
2022-08-18T19:47:36.936Z,19.00
2022-08-18T19:50:27.283Z,19.10
2022-08-18T19:53:04.952Z,19.00
2022-08-18T19:55:54.172Z,19.00
2022-08-18T19:58:35.561Z,19.00
2022-08-18T20:01:20.917Z,18.90
2022-08-18T20:03:54.612Z,18.90
2022-08-18T20:06:38.195Z,18.90
2022-08-18T20:09:20.795Z,18.90
2022-08-18T20:12:06.016Z,18.90
2022-08-18T20:14:37.430Z,18.90
2022-08-18T20:17:20.559Z,18.80
2022-08-18T20:19:59.519Z,18.90
2022-08-18T20:22:33.317Z,18.80
2022-08-18T20:25:08.303Z,18.80
2022-08-18T20:28:14.713Z,18.80
2022-08-18T20:30:53.172Z,18.70
2022-08-18T20:33:23.014Z,18.70
2022-08-18T20:36:12.701Z,18.60
2022-08-18T20:38:53.320Z,18.60
2022-08-18T20:41:20.141Z,18.60
2022-08-18T20:43:50.260Z,18.60
2022-08-18T20:46:46.371Z,18.60
2022-08-18T20:49:25.486Z,18.70
2022-08-18T20:52:03.971Z,18.70
2022-08-18T20:54:57.254Z,18.80
2022-08-18T20:57:27.203Z,18.70
2022-08-18T21:00:02.151Z,18.70
2022-08-18T21:02:42.656Z,18.80
2022-08-18T21:05:16.630Z,18.80
2022-08-18T21:07:58.056Z,18.80
2022-08-18T21:10:29.749Z,18.80
2022-08-18T21:13:00.794Z,18.90
2022-08-18T21:15:36.249Z,18.90
2022-08-18T21:18:10.676Z,18.90
2022-08-18T21:20:37.647Z,18.90
2022-08-18T21:23:12.175Z,18.90
2022-08-18T21:25:57.896Z,18.90
2022-08-18T21:28:31.426Z,18.90
2022-08-18T21:31:29.017Z,18.90
2022-08-18T21:33:51.100Z,18.90
2022-08-18T21:36:21.941Z,18.90
2022-08-18T21:39:05.462Z,18.90
2022-08-18T21:41:41.266Z,18.90
2022-08-18T21:44:23.143Z,18.90
2022-08-18T21:46:51.267Z,18.80
2022-08-18T21:49:25.494Z,18.80
2022-08-18T21:51:53.603Z,18.80
2022-08-18T21:54:29.251Z,18.80
2022-08-18T21:57:25.614Z,18.70
2022-08-18T22:00:26.549Z,18.70
2022-08-18T22:03:24.670Z,18.70
2022-08-18T22:06:20.218Z,18.70
2022-08-18T22:09:24.340Z,18.70
2022-08-18T22:12:48.802Z,18.70
2022-08-18T22:15:28.852Z,18.70
2022-08-18T22:18:05.486Z,18.70
2022-08-18T22:20:59.804Z,18.70
2022-08-18T22:23:58.218Z,18.60
2022-08-18T22:26:30.916Z,18.60
2022-08-18T22:29:05.838Z,18.60
2022-08-18T22:31:40.138Z,18.60
2022-08-18T22:34:13.492Z,18.40
2022-08-18T22:36:57.068Z,18.40
2022-08-18T22:39:49.702Z,18.40
2022-08-18T22:42:18.876Z,18.30
2022-08-18T22:44:46.501Z,18.30
2022-08-18T22:47:13.943Z,18.30
2022-08-18T22:49:42.394Z,18.30
2022-08-18T22:52:30.109Z,18.30
2022-08-18T22:55:02.765Z,18.30
2022-08-18T22:57:37.576Z,18.30
2022-08-18T23:00:09.156Z,18.40
2022-08-18T23:02:37.257Z,18.30
2022-08-18T23:05:05.109Z,18.30
2022-08-18T23:07:33.629Z,18.40
2022-08-18T23:10:00.710Z,18.40
2022-08-18T23:12:27.797Z,18.40
2022-08-18T23:14:55.553Z,18.40
2022-08-18T23:17:22.773Z,18.40
2022-08-18T23:19:52.289Z,18.40
2022-08-18T23:22:19.570Z,18.40
2022-08-18T23:24:47.821Z,18.40
2022-08-18T23:27:15.987Z,18.40
2022-08-18T23:29:42.724Z,18.40
2022-08-18T23:32:09.582Z,18.40
2022-08-18T23:34:36.701Z,18.40
2022-08-18T23:37:05.018Z,18.30
2022-08-18T23:39:34.698Z,18.30
2022-08-18T23:42:03.296Z,18.40
2022-08-18T23:44:31.302Z,18.40
2022-08-18T23:47:02.304Z,18.40
2022-08-18T23:49:30.480Z,18.40
2022-08-18T23:52:03.212Z,18.40
2022-08-18T23:54:37.735Z,18.50
2022-08-18T23:57:05.873Z,18.50
2022-08-18T23:59:32.764Z,18.60
